sensor_id;sensor_type;location;lat;lon;timestamp;temperature;humidity
25138;DHT22;13112;50.986;4.354;2023-03-14T00:01:24;11.50;99.90
25138;DHT22;13112;50.986;4.354;2023-03-14T00:03:50;11.40;99.90
25138;DHT22;13112;50.986;4.354;2023-03-14T00:06:17;11.30;99.90
25138;DHT22;13112;50.986;4.354;2023-03-14T00:08:43;11.40;99.90
25138;DHT22;13112;50.986;4.354;2023-03-14T00:11:12;11.30;99.90
25138;DHT22;13112;50.986;4.354;2023-03-14T00:13:38;11.30;99.90
25138;DHT22;13112;50.986;4.354;2023-03-14T00:16:12;11.20;99.90
25138;DHT22;13112;50.986;4.354;2023-03-14T00:18:39;11.20;99.90
25138;DHT22;13112;50.986;4.354;2023-03-14T00:21:07;11.10;99.90
25138;DHT22;13112;50.986;4.354;2023-03-14T00:23:35;11.10;99.90
25138;DHT22;13112;50.986;4.354;2023-03-14T00:26:04;11.20;99.90
25138;DHT22;13112;50.986;4.354;2023-03-14T00:28:30;11.20;99.90
25138;DHT22;13112;50.986;4.354;2023-03-14T00:30:56;11.10;99.90
25138;DHT22;13112;50.986;4.354;2023-03-14T00:33:22;10.90;99.90
25138;DHT22;13112;50.986;4.354;2023-03-14T00:36:02;10.90;99.90
25138;DHT22;13112;50.986;4.354;2023-03-14T00:38:30;10.90;99.90
25138;DHT22;13112;50.986;4.354;2023-03-14T00:40:56;10.90;99.90
25138;DHT22;13112;50.986;4.354;2023-03-14T00:43:22;11.00;99.90
25138;DHT22;13112;50.986;4.354;2023-03-14T00:45:49;11.10;99.90
25138;DHT22;13112;50.986;4.354;2023-03-14T00:48:15;11.10;99.90
25138;DHT22;13112;50.986;4.354;2023-03-14T00:50:41;11.10;99.90
25138;DHT22;13112;50.986;4.354;2023-03-14T00:53:07;11.10;99.90
25138;DHT22;13112;50.986;4.354;2023-03-14T00:55:37;11.00;99.90
25138;DHT22;13112;50.986;4.354;2023-03-14T00:58:02;10.90;99.90
25138;DHT22;13112;50.986;4.354;2023-03-14T01:00:28;10.90;99.90
25138;DHT22;13112;50.986;4.354;2023-03-14T01:02:54;10.90;99.90
25138;DHT22;13112;50.986;4.354;2023-03-14T01:05:21;10.90;99.90
25138;DHT22;13112;50.986;4.354;2023-03-14T01:07:47;10.80;99.90
25138;DHT22;13112;50.986;4.354;2023-03-14T01:10:13;10.70;99.90
25138;DHT22;13112;50.986;4.354;2023-03-14T01:12:39;10.80;99.90
25138;DHT22;13112;50.986;4.354;2023-03-14T01:15:05;10.80;99.90
25138;DHT22;13112;50.986;4.354;2023-03-14T01:17:31;10.60;99.90
25138;DHT22;13112;50.986;4.354;2023-03-14T01:19:56;10.60;99.90
25138;DHT22;13112;50.986;4.354;2023-03-14T01:22:22;10.60;99.90
25138;DHT22;13112;50.986;4.354;2023-03-14T01:24:47;10.60;99.90
25138;DHT22;13112;50.986;4.354;2023-03-14T01:27:13;10.70;99.90
25138;DHT22;13112;50.986;4.354;2023-03-14T01:29:39;10.70;99.90
25138;DHT22;13112;50.986;4.354;2023-03-14T01:32:04;10.80;99.90
25138;DHT22;13112;50.986;4.354;2023-03-14T01:34:30;10.80;99.90
25138;DHT22;13112;50.986;4.354;2023-03-14T01:36:56;10.90;99.90
25138;DHT22;13112;50.986;4.354;2023-03-14T01:39:21;11.00;99.90
25138;DHT22;13112;50.986;4.354;2023-03-14T01:41:47;10.80;99.90
25138;DHT22;13112;50.986;4.354;2023-03-14T01:44:13;10.80;99.90
25138;DHT22;13112;50.986;4.354;2023-03-14T01:46:41;10.90;99.90
25138;DHT22;13112;50.986;4.354;2023-03-14T01:49:30;11.00;99.90
25138;DHT22;13112;50.986;4.354;2023-03-14T01:52:20;11.00;99.90
25138;DHT22;13112;50.986;4.354;2023-03-14T01:54:52;11.00;99.90
25138;DHT22;13112;50.986;4.354;2023-03-14T01:57:28;10.90;99.90
25138;DHT22;13112;50.986;4.354;2023-03-14T02:00:01;10.80;99.90
25138;DHT22;13112;50.986;4.354;2023-03-14T02:02:29;10.80;99.90
25138;DHT22;13112;50.986;4.354;2023-03-14T02:04:56;10.70;99.90
25138;DHT22;13112;50.986;4.354;2023-03-14T02:07:39;10.70;99.90
25138;DHT22;13112;50.986;4.354;2023-03-14T02:10:06;10.80;99.90
25138;DHT22;13112;50.986;4.354;2023-03-14T02:12:33;10.60;99.90
25138;DHT22;13112;50.986;4.354;2023-03-14T02:15:00;10.70;99.90
25138;DHT22;13112;50.986;4.354;2023-03-14T02:17:25;10.70;99.90
25138;DHT22;13112;50.986;4.354;2023-03-14T02:20:23;10.70;99.90
25138;DHT22;13112;50.986;4.354;2023-03-14T02:22:51;10.70;99.90
25138;DHT22;13112;50.986;4.354;2023-03-14T02:27:51;10.60;99.90
25138;DHT22;13112;50.986;4.354;2023-03-14T02:30:21;10.70;99.90
25138;DHT22;13112;50.986;4.354;2023-03-14T02:32:51;10.70;99.90
25138;DHT22;13112;50.986;4.354;2023-03-14T02:35:42;10.60;99.90
25138;DHT22;13112;50.986;4.354;2023-03-14T02:40:49;10.60;99.90
25138;DHT22;13112;50.986;4.354;2023-03-14T02:43:15;10.70;99.90
25138;DHT22;13112;50.986;4.354;2023-03-14T02:45:44;10.70;99.90
25138;DHT22;13112;50.986;4.354;2023-03-14T02:48:26;10.60;99.90
25138;DHT22;13112;50.986;4.354;2023-03-14T02:50:55;10.30;99.90
25138;DHT22;13112;50.986;4.354;2023-03-14T02:53:30;10.30;99.90
25138;DHT22;13112;50.986;4.354;2023-03-14T02:55:57;10.10;99.90
25138;DHT22;13112;50.986;4.354;2023-03-14T02:58:23;10.00;99.90
25138;DHT22;13112;50.986;4.354;2023-03-14T03:00:49;10.00;99.90
25138;DHT22;13112;50.986;4.354;2023-03-14T03:03:15;10.00;99.90
25138;DHT22;13112;50.986;4.354;2023-03-14T03:05:41;9.90;99.90
25138;DHT22;13112;50.986;4.354;2023-03-14T03:08:08;9.80;99.90
25138;DHT22;13112;50.986;4.354;2023-03-14T03:10:34;9.80;99.90
25138;DHT22;13112;50.986;4.354;2023-03-14T03:13:00;9.80;99.90
25138;DHT22;13112;50.986;4.354;2023-03-14T03:15:26;9.70;99.90
25138;DHT22;13112;50.986;4.354;2023-03-14T03:17:52;9.70;99.90
25138;DHT22;13112;50.986;4.354;2023-03-14T03:20:18;9.60;99.90
25138;DHT22;13112;50.986;4.354;2023-03-14T03:22:44;9.60;99.90
25138;DHT22;13112;50.986;4.354;2023-03-14T03:25:10;9.60;99.90
25138;DHT22;13112;50.986;4.354;2023-03-14T03:27:37;9.50;99.90
25138;DHT22;13112;50.986;4.354;2023-03-14T03:30:05;9.50;99.90
25138;DHT22;13112;50.986;4.354;2023-03-14T03:32:31;9.60;99.90
25138;DHT22;13112;50.986;4.354;2023-03-14T03:34:57;9.60;99.90
25138;DHT22;13112;50.986;4.354;2023-03-14T03:37:22;9.70;99.90
25138;DHT22;13112;50.986;4.354;2023-03-14T03:39:50;9.80;99.90
25138;DHT22;13112;50.986;4.354;2023-03-14T03:42:17;9.80;99.90
25138;DHT22;13112;50.986;4.354;2023-03-14T03:44:43;9.80;99.90
25138;DHT22;13112;50.986;4.354;2023-03-14T03:47:08;9.80;99.90
25138;DHT22;13112;50.986;4.354;2023-03-14T03:49:34;9.70;99.90
25138;DHT22;13112;50.986;4.354;2023-03-14T03:52:00;9.80;99.90
25138;DHT22;13112;50.986;4.354;2023-03-14T03:54:25;9.90;99.90
25138;DHT22;13112;50.986;4.354;2023-03-14T03:56:52;10.00;99.90
25138;DHT22;13112;50.986;4.354;2023-03-14T03:59:18;10.10;99.90
25138;DHT22;13112;50.986;4.354;2023-03-14T04:01:44;10.20;99.90
25138;DHT22;13112;50.986;4.354;2023-03-14T04:04:09;10.10;99.90
25138;DHT22;13112;50.986;4.354;2023-03-14T04:06:36;10.00;99.90
25138;DHT22;13112;50.986;4.354;2023-03-14T04:09:02;10.00;99.90
25138;DHT22;13112;50.986;4.354;2023-03-14T04:11:28;10.00;99.90
25138;DHT22;13112;50.986;4.354;2023-03-14T04:13:55;10.00;99.90
25138;DHT22;13112;50.986;4.354;2023-03-14T04:16:23;10.10;99.90
25138;DHT22;13112;50.986;4.354;2023-03-14T04:18:49;10.20;99.90
25138;DHT22;13112;50.986;4.354;2023-03-14T04:21:15;10.30;99.90
25138;DHT22;13112;50.986;4.354;2023-03-14T04:23:41;10.30;99.90
25138;DHT22;13112;50.986;4.354;2023-03-14T04:26:07;10.30;99.90
25138;DHT22;13112;50.986;4.354;2023-03-14T04:28:32;10.40;99.90
25138;DHT22;13112;50.986;4.354;2023-03-14T04:30:58;10.40;99.90
25138;DHT22;13112;50.986;4.354;2023-03-14T04:33:24;10.40;99.90
25138;DHT22;13112;50.986;4.354;2023-03-14T04:35:54;10.40;99.90
25138;DHT22;13112;50.986;4.354;2023-03-14T04:38:20;10.40;99.90
25138;DHT22;13112;50.986;4.354;2023-03-14T04:40:45;10.30;99.90
25138;DHT22;13112;50.986;4.354;2023-03-14T04:43:11;10.30;99.90
25138;DHT22;13112;50.986;4.354;2023-03-14T04:45:41;10.30;99.90
25138;DHT22;13112;50.986;4.354;2023-03-14T04:48:06;10.40;99.90
25138;DHT22;13112;50.986;4.354;2023-03-14T04:50:32;10.50;99.90
25138;DHT22;13112;50.986;4.354;2023-03-14T04:52:58;10.30;99.90
25138;DHT22;13112;50.986;4.354;2023-03-14T04:55:23;10.30;99.90
25138;DHT22;13112;50.986;4.354;2023-03-14T04:57:49;10.20;99.90
25138;DHT22;13112;50.986;4.354;2023-03-14T05:00:15;10.30;99.90
25138;DHT22;13112;50.986;4.354;2023-03-14T05:02:43;10.20;99.90
25138;DHT22;13112;50.986;4.354;2023-03-14T05:05:09;10.20;99.90
25138;DHT22;13112;50.986;4.354;2023-03-14T05:07:34;10.10;99.90
25138;DHT22;13112;50.986;4.354;2023-03-14T05:10:00;10.10;99.90
25138;DHT22;13112;50.986;4.354;2023-03-14T05:12:26;10.20;99.90
25138;DHT22;13112;50.986;4.354;2023-03-14T05:14:51;10.20;99.90
25138;DHT22;13112;50.986;4.354;2023-03-14T05:17:17;10.30;99.90
25138;DHT22;13112;50.986;4.354;2023-03-14T05:19:44;10.40;99.90
25138;DHT22;13112;50.986;4.354;2023-03-14T05:22:10;10.40;99.90
25138;DHT22;13112;50.986;4.354;2023-03-14T05:24:36;10.40;99.90
25138;DHT22;13112;50.986;4.354;2023-03-14T05:27:02;10.40;99.90
25138;DHT22;13112;50.986;4.354;2023-03-14T05:29:28;10.30;99.90
25138;DHT22;13112;50.986;4.354;2023-03-14T05:31:54;10.30;99.90
25138;DHT22;13112;50.986;4.354;2023-03-14T05:34:20;10.50;99.90
25138;DHT22;13112;50.986;4.354;2023-03-14T05:36:45;10.50;99.90
25138;DHT22;13112;50.986;4.354;2023-03-14T05:39:11;10.60;99.90
25138;DHT22;13112;50.986;4.354;2023-03-14T05:41:37;10.70;99.90
25138;DHT22;13112;50.986;4.354;2023-03-14T05:44:02;10.60;99.90
25138;DHT22;13112;50.986;4.354;2023-03-14T05:46:28;10.50;99.90
25138;DHT22;13112;50.986;4.354;2023-03-14T05:48:59;10.50;99.90
25138;DHT22;13112;50.986;4.354;2023-03-14T05:51:25;10.40;99.90
25138;DHT22;13112;50.986;4.354;2023-03-14T05:53:51;10.40;99.90
25138;DHT22;13112;50.986;4.354;2023-03-14T05:56:17;10.40;99.90
25138;DHT22;13112;50.986;4.354;2023-03-14T05:58:42;10.50;99.90
25138;DHT22;13112;50.986;4.354;2023-03-14T06:01:08;10.60;99.90
25138;DHT22;13112;50.986;4.354;2023-03-14T06:03:34;10.60;99.90
25138;DHT22;13112;50.986;4.354;2023-03-14T06:06:00;10.60;99.90
25138;DHT22;13112;50.986;4.354;2023-03-14T06:08:26;10.60;99.90
25138;DHT22;13112;50.986;4.354;2023-03-14T06:10:52;10.60;99.90
25138;DHT22;13112;50.986;4.354;2023-03-14T06:13:18;10.50;99.90
25138;DHT22;13112;50.986;4.354;2023-03-14T06:15:45;10.40;99.90
25138;DHT22;13112;50.986;4.354;2023-03-14T06:18:11;10.40;99.90
25138;DHT22;13112;50.986;4.354;2023-03-14T06:20:38;10.40;99.90
25138;DHT22;13112;50.986;4.354;2023-03-14T06:23:08;10.40;99.90
25138;DHT22;13112;50.986;4.354;2023-03-14T06:25:34;10.60;99.90
25138;DHT22;13112;50.986;4.354;2023-03-14T06:28:00;10.50;99.90
25138;DHT22;13112;50.986;4.354;2023-03-14T06:30:26;10.30;99.90
25138;DHT22;13112;50.986;4.354;2023-03-14T06:32:52;10.40;99.90
25138;DHT22;13112;50.986;4.354;2023-03-14T06:35:18;10.40;99.90
25138;DHT22;13112;50.986;4.354;2023-03-14T06:37:43;10.40;99.90
25138;DHT22;13112;50.986;4.354;2023-03-14T06:40:11;10.30;99.90
25138;DHT22;13112;50.986;4.354;2023-03-14T06:42:42;9.90;99.90
25138;DHT22;13112;50.986;4.354;2023-03-14T06:45:09;9.40;99.90
25138;DHT22;13112;50.986;4.354;2023-03-14T06:47:35;9.00;99.90
25138;DHT22;13112;50.986;4.354;2023-03-14T06:50:00;8.80;99.90
25138;DHT22;13112;50.986;4.354;2023-03-14T06:52:26;8.70;99.90
25138;DHT22;13112;50.986;4.354;2023-03-14T06:54:52;8.60;99.90
25138;DHT22;13112;50.986;4.354;2023-03-14T06:57:17;8.60;99.90
25138;DHT22;13112;50.986;4.354;2023-03-14T06:59:43;8.80;99.90
25138;DHT22;13112;50.986;4.354;2023-03-14T07:02:12;8.80;99.90
25138;DHT22;13112;50.986;4.354;2023-03-14T07:04:38;8.70;99.90
25138;DHT22;13112;50.986;4.354;2023-03-14T07:07:04;8.40;99.90
25138;DHT22;13112;50.986;4.354;2023-03-14T07:09:31;8.20;99.90
25138;DHT22;13112;50.986;4.354;2023-03-14T07:11:56;8.10;99.90
25138;DHT22;13112;50.986;4.354;2023-03-14T07:14:22;8.10;99.90
25138;DHT22;13112;50.986;4.354;2023-03-14T07:16:48;8.00;99.90
25138;DHT22;13112;50.986;4.354;2023-03-14T07:19:13;7.90;99.90
25138;DHT22;13112;50.986;4.354;2023-03-14T07:21:39;8.00;99.90
25138;DHT22;13112;50.986;4.354;2023-03-14T07:24:05;8.00;99.90
25138;DHT22;13112;50.986;4.354;2023-03-14T07:26:31;8.10;99.90
25138;DHT22;13112;50.986;4.354;2023-03-14T07:28:56;8.00;99.90
25138;DHT22;13112;50.986;4.354;2023-03-14T07:31:22;8.10;99.90
25138;DHT22;13112;50.986;4.354;2023-03-14T07:33:48;8.00;99.90
25138;DHT22;13112;50.986;4.354;2023-03-14T07:36:14;8.10;99.90
25138;DHT22;13112;50.986;4.354;2023-03-14T07:38:39;8.10;99.90
25138;DHT22;13112;50.986;4.354;2023-03-14T07:41:06;8.10;99.90
25138;DHT22;13112;50.986;4.354;2023-03-14T07:43:32;8.10;99.90
25138;DHT22;13112;50.986;4.354;2023-03-14T07:45:58;8.00;99.90
25138;DHT22;13112;50.986;4.354;2023-03-14T07:48:24;8.00;99.90
25138;DHT22;13112;50.986;4.354;2023-03-14T07:50:54;8.30;99.90
25138;DHT22;13112;50.986;4.354;2023-03-14T07:53:20;8.50;99.90
25138;DHT22;13112;50.986;4.354;2023-03-14T07:55:47;8.70;99.90
25138;DHT22;13112;50.986;4.354;2023-03-14T07:58:13;8.60;99.90
25138;DHT22;13112;50.986;4.354;2023-03-14T08:00:39;8.40;99.90
25138;DHT22;13112;50.986;4.354;2023-03-14T08:03:04;8.40;99.90
25138;DHT22;13112;50.986;4.354;2023-03-14T08:05:30;8.50;99.90
25138;DHT22;13112;50.986;4.354;2023-03-14T08:07:56;8.50;99.90
25138;DHT22;13112;50.986;4.354;2023-03-14T08:10:22;8.40;99.90
25138;DHT22;13112;50.986;4.354;2023-03-14T08:12:55;8.30;99.90
25138;DHT22;13112;50.986;4.354;2023-03-14T08:15:22;8.40;99.90
25138;DHT22;13112;50.986;4.354;2023-03-14T08:17:48;8.30;99.90
25138;DHT22;13112;50.986;4.354;2023-03-14T08:20:21;8.30;99.90
25138;DHT22;13112;50.986;4.354;2023-03-14T08:22:47;8.30;99.90
25138;DHT22;13112;50.986;4.354;2023-03-14T08:25:13;8.30;99.90
25138;DHT22;13112;50.986;4.354;2023-03-14T08:27:39;8.30;99.90
25138;DHT22;13112;50.986;4.354;2023-03-14T08:30:09;8.20;99.90
25138;DHT22;13112;50.986;4.354;2023-03-14T08:32:36;8.10;99.90
25138;DHT22;13112;50.986;4.354;2023-03-14T08:35:02;8.00;99.90
25138;DHT22;13112;50.986;4.354;2023-03-14T08:37:28;8.00;99.90
25138;DHT22;13112;50.986;4.354;2023-03-14T08:39:54;8.10;99.90
25138;DHT22;13112;50.986;4.354;2023-03-14T08:42:20;8.10;99.90
25138;DHT22;13112;50.986;4.354;2023-03-14T08:44:45;8.00;99.90
25138;DHT22;13112;50.986;4.354;2023-03-14T08:47:11;8.10;99.90
25138;DHT22;13112;50.986;4.354;2023-03-14T08:49:37;8.20;99.90
25138;DHT22;13112;50.986;4.354;2023-03-14T08:52:03;8.40;99.90
25138;DHT22;13112;50.986;4.354;2023-03-14T08:54:30;8.60;99.90
25138;DHT22;13112;50.986;4.354;2023-03-14T08:56:56;8.70;99.90
25138;DHT22;13112;50.986;4.354;2023-03-14T08:59:23;8.90;99.90
25138;DHT22;13112;50.986;4.354;2023-03-14T09:01:48;8.80;99.90
25138;DHT22;13112;50.986;4.354;2023-03-14T09:04:14;8.70;99.90
25138;DHT22;13112;50.986;4.354;2023-03-14T09:06:40;8.50;99.90
25138;DHT22;13112;50.986;4.354;2023-03-14T09:09:06;8.50;99.90
25138;DHT22;13112;50.986;4.354;2023-03-14T09:11:32;8.30;99.90
25138;DHT22;13112;50.986;4.354;2023-03-14T09:13:58;8.20;99.90
25138;DHT22;13112;50.986;4.354;2023-03-14T09:16:24;8.10;99.90
25138;DHT22;13112;50.986;4.354;2023-03-14T09:18:50;8.10;99.90
25138;DHT22;13112;50.986;4.354;2023-03-14T09:21:18;8.10;99.90
25138;DHT22;13112;50.986;4.354;2023-03-14T09:23:44;8.20;99.90
25138;DHT22;13112;50.986;4.354;2023-03-14T09:26:11;8.20;99.90
25138;DHT22;13112;50.986;4.354;2023-03-14T09:28:36;8.20;99.90
25138;DHT22;13112;50.986;4.354;2023-03-14T09:31:07;8.30;99.90
25138;DHT22;13112;50.986;4.354;2023-03-14T09:33:34;8.40;99.90
25138;DHT22;13112;50.986;4.354;2023-03-14T09:36:00;8.20;99.90
25138;DHT22;13112;50.986;4.354;2023-03-14T09:38:26;8.20;99.90
25138;DHT22;13112;50.986;4.354;2023-03-14T09:40:53;8.10;99.90
25138;DHT22;13112;50.986;4.354;2023-03-14T09:43:20;8.20;99.90
25138;DHT22;13112;50.986;4.354;2023-03-14T09:45:48;8.30;99.90
25138;DHT22;13112;50.986;4.354;2023-03-14T09:48:21;8.30;99.90
25138;DHT22;13112;50.986;4.354;2023-03-14T09:50:55;8.40;99.90
25138;DHT22;13112;50.986;4.354;2023-03-14T09:53:38;8.40;99.90
25138;DHT22;13112;50.986;4.354;2023-03-14T09:56:11;8.20;99.90
25138;DHT22;13112;50.986;4.354;2023-03-14T09:58:38;8.20;99.90
25138;DHT22;13112;50.986;4.354;2023-03-14T10:01:11;8.00;99.90
25138;DHT22;13112;50.986;4.354;2023-03-14T10:03:39;7.90;99.90
25138;DHT22;13112;50.986;4.354;2023-03-14T10:06:11;8.00;99.90
25138;DHT22;13112;50.986;4.354;2023-03-14T10:08:42;7.90;99.90
25138;DHT22;13112;50.986;4.354;2023-03-14T10:11:14;7.90;99.90
25138;DHT22;13112;50.986;4.354;2023-03-14T10:16:13;7.50;99.90
25138;DHT22;13112;50.986;4.354;2023-03-14T10:18:45;7.30;99.90
25138;DHT22;13112;50.986;4.354;2023-03-14T10:21:21;7.10;99.90
25138;DHT22;13112;50.986;4.354;2023-03-14T10:23:51;7.20;99.90
25138;DHT22;13112;50.986;4.354;2023-03-14T10:26:35;7.10;99.90
25138;DHT22;13112;50.986;4.354;2023-03-14T10:29:03;7.10;99.90
25138;DHT22;13112;50.986;4.354;2023-03-14T10:31:50;7.00;99.90
25138;DHT22;13112;50.986;4.354;2023-03-14T10:34:21;7.10;99.90
25138;DHT22;13112;50.986;4.354;2023-03-14T10:36:52;7.20;99.90
25138;DHT22;13112;50.986;4.354;2023-03-14T10:39:45;7.20;99.90
25138;DHT22;13112;50.986;4.354;2023-03-14T10:42:32;6.90;99.90
25138;DHT22;13112;50.986;4.354;2023-03-14T10:45:29;6.90;99.90
25138;DHT22;13112;50.986;4.354;2023-03-14T10:48:20;6.80;99.90
25138;DHT22;13112;50.986;4.354;2023-03-14T10:51:11;6.80;99.90
25138;DHT22;13112;50.986;4.354;2023-03-14T10:56:19;6.90;99.90
25138;DHT22;13112;50.986;4.354;2023-03-14T10:58:48;7.00;99.90
25138;DHT22;13112;50.986;4.354;2023-03-14T11:06:44;6.80;99.90
25138;DHT22;13112;50.986;4.354;2023-03-14T11:09:29;6.70;99.90
25138;DHT22;13112;50.986;4.354;2023-03-14T11:14:54;6.70;99.90
25138;DHT22;13112;50.986;4.354;2023-03-14T11:17:46;6.60;99.90
25138;DHT22;13112;50.986;4.354;2023-03-14T11:23:22;6.80;99.90
25138;DHT22;13112;50.986;4.354;2023-03-14T11:31:28;7.10;99.90
25138;DHT22;13112;50.986;4.354;2023-03-14T11:34:05;7.10;99.90
25138;DHT22;13112;50.986;4.354;2023-03-14T11:36:41;7.10;99.90
25138;DHT22;13112;50.986;4.354;2023-03-14T11:39:15;7.30;99.90
25138;DHT22;13112;50.986;4.354;2023-03-14T11:41:47;7.50;99.90
25138;DHT22;13112;50.986;4.354;2023-03-14T11:44:28;7.70;99.90
25138;DHT22;13112;50.986;4.354;2023-03-14T11:52:03;8.20;99.90
25138;DHT22;13112;50.986;4.354;2023-03-14T11:57:23;8.10;99.90
25138;DHT22;13112;50.986;4.354;2023-03-14T12:07:34;7.90;99.90
25138;DHT22;13112;50.986;4.354;2023-03-14T12:10:04;7.80;99.90
25138;DHT22;13112;50.986;4.354;2023-03-14T12:12:30;8.10;99.90
25138;DHT22;13112;50.986;4.354;2023-03-14T12:15:01;8.10;99.90
25138;DHT22;13112;50.986;4.354;2023-03-14T12:17:39;8.10;99.90
25138;DHT22;13112;50.986;4.354;2023-03-14T12:20:16;8.10;99.90
25138;DHT22;13112;50.986;4.354;2023-03-14T12:22:55;8.10;99.90
25138;DHT22;13112;50.986;4.354;2023-03-14T12:25:24;8.20;99.90
25138;DHT22;13112;50.986;4.354;2023-03-14T12:35:43;8.10;99.90
25138;DHT22;13112;50.986;4.354;2023-03-14T12:40:40;8.20;99.90
25138;DHT22;13112;50.986;4.354;2023-03-14T12:43:33;8.30;99.90
25138;DHT22;13112;50.986;4.354;2023-03-14T12:49:03;8.30;99.90
25138;DHT22;13112;50.986;4.354;2023-03-14T12:51:41;8.30;99.90
25138;DHT22;13112;50.986;4.354;2023-03-14T12:57:22;8.60;99.90
25138;DHT22;13112;50.986;4.354;2023-03-14T12:59:58;8.20;99.90
25138;DHT22;13112;50.986;4.354;2023-03-14T13:02:44;8.20;99.90
25138;DHT22;13112;50.986;4.354;2023-03-14T13:10:26;8.30;99.90
25138;DHT22;13112;50.986;4.354;2023-03-14T13:13:07;8.20;99.90
25138;DHT22;13112;50.986;4.354;2023-03-14T13:18:27;8.30;99.90
25138;DHT22;13112;50.986;4.354;2023-03-14T13:21:03;8.40;99.90
25138;DHT22;13112;50.986;4.354;2023-03-14T13:23:32;8.70;99.90
25138;DHT22;13112;50.986;4.354;2023-03-14T13:26:00;8.90;99.90
25138;DHT22;13112;50.986;4.354;2023-03-14T13:28:27;9.10;99.90
25138;DHT22;13112;50.986;4.354;2023-03-14T13:31:01;9.10;99.90
25138;DHT22;13112;50.986;4.354;2023-03-14T13:33:28;9.00;99.90
25138;DHT22;13112;50.986;4.354;2023-03-14T13:36:00;9.10;99.90
25138;DHT22;13112;50.986;4.354;2023-03-14T13:38:29;9.10;99.90
25138;DHT22;13112;50.986;4.354;2023-03-14T13:40:58;8.70;99.90
25138;DHT22;13112;50.986;4.354;2023-03-14T13:43:49;8.60;99.90
25138;DHT22;13112;50.986;4.354;2023-03-14T13:46:17;8.50;99.90
25138;DHT22;13112;50.986;4.354;2023-03-14T13:48:50;8.40;99.90
25138;DHT22;13112;50.986;4.354;2023-03-14T13:51:19;8.30;99.90
25138;DHT22;13112;50.986;4.354;2023-03-14T13:53:53;8.50;99.90
25138;DHT22;13112;50.986;4.354;2023-03-14T13:56:26;8.60;99.90
25138;DHT22;13112;50.986;4.354;2023-03-14T13:58:53;8.60;99.90
25138;DHT22;13112;50.986;4.354;2023-03-14T14:01:22;8.60;99.90
25138;DHT22;13112;50.986;4.354;2023-03-14T14:03:51;8.60;99.90
25138;DHT22;13112;50.986;4.354;2023-03-14T14:06:34;8.80;99.90
25138;DHT22;13112;50.986;4.354;2023-03-14T14:09:29;8.70;99.90
25138;DHT22;13112;50.986;4.354;2023-03-14T14:12:08;8.80;99.90
25138;DHT22;13112;50.986;4.354;2023-03-14T14:14:44;9.00;99.90
25138;DHT22;13112;50.986;4.354;2023-03-14T14:17:15;8.80;99.90
25138;DHT22;13112;50.986;4.354;2023-03-14T14:19:43;8.80;99.90
25138;DHT22;13112;50.986;4.354;2023-03-14T14:22:10;8.70;99.90
25138;DHT22;13112;50.986;4.354;2023-03-14T14:24:36;8.70;99.90
25138;DHT22;13112;50.986;4.354;2023-03-14T14:27:17;8.50;99.90
25138;DHT22;13112;50.986;4.354;2023-03-14T14:30:04;8.40;99.90
25138;DHT22;13112;50.986;4.354;2023-03-14T14:32:36;8.30;99.90
25138;DHT22;13112;50.986;4.354;2023-03-14T14:35:03;8.20;99.90
25138;DHT22;13112;50.986;4.354;2023-03-14T14:37:35;7.70;99.90
25138;DHT22;13112;50.986;4.354;2023-03-14T14:40:24;7.50;99.90
25138;DHT22;13112;50.986;4.354;2023-03-14T14:42:50;7.50;99.90
25138;DHT22;13112;50.986;4.354;2023-03-14T14:45:22;7.50;99.90
25138;DHT22;13112;50.986;4.354;2023-03-14T14:51:05;7.40;99.90
25138;DHT22;13112;50.986;4.354;2023-03-14T14:53:43;7.20;99.90
25138;DHT22;13112;50.986;4.354;2023-03-14T14:56:19;7.30;99.90
25138;DHT22;13112;50.986;4.354;2023-03-14T14:58:49;7.60;99.90
25138;DHT22;13112;50.986;4.354;2023-03-14T15:01:17;7.90;99.90
25138;DHT22;13112;50.986;4.354;2023-03-14T15:03:45;8.20;99.90
25138;DHT22;13112;50.986;4.354;2023-03-14T15:06:13;8.50;99.90
25138;DHT22;13112;50.986;4.354;2023-03-14T15:08:39;8.80;99.90
25138;DHT22;13112;50.986;4.354;2023-03-14T15:11:05;8.90;99.90
25138;DHT22;13112;50.986;4.354;2023-03-14T15:13:31;8.90;99.90
25138;DHT22;13112;50.986;4.354;2023-03-14T15:15:57;8.90;99.90
25138;DHT22;13112;50.986;4.354;2023-03-14T15:18:24;8.90;99.90
25138;DHT22;13112;50.986;4.354;2023-03-14T15:20:51;9.10;99.90
25138;DHT22;13112;50.986;4.354;2023-03-14T15:23:19;9.30;99.90
25138;DHT22;13112;50.986;4.354;2023-03-14T15:25:45;9.60;99.90
25138;DHT22;13112;50.986;4.354;2023-03-14T15:28:21;9.60;99.90
25138;DHT22;13112;50.986;4.354;2023-03-14T15:30:52;9.60;99.90
25138;DHT22;13112;50.986;4.354;2023-03-14T15:33:19;9.80;99.90
25138;DHT22;13112;50.986;4.354;2023-03-14T15:35:45;9.60;99.90
25138;DHT22;13112;50.986;4.354;2023-03-14T15:38:12;9.30;99.90
25138;DHT22;13112;50.986;4.354;2023-03-14T15:40:39;9.30;99.90
25138;DHT22;13112;50.986;4.354;2023-03-14T15:43:05;8.90;99.90
25138;DHT22;13112;50.986;4.354;2023-03-14T15:45:31;8.70;99.90
25138;DHT22;13112;50.986;4.354;2023-03-14T15:47:56;8.70;99.90
25138;DHT22;13112;50.986;4.354;2023-03-14T15:50:22;8.50;99.90
25138;DHT22;13112;50.986;4.354;2023-03-14T15:52:48;8.40;99.90
25138;DHT22;13112;50.986;4.354;2023-03-14T15:55:14;8.30;99.90
25138;DHT22;13112;50.986;4.354;2023-03-14T15:57:44;8.20;99.90
25138;DHT22;13112;50.986;4.354;2023-03-14T16:00:16;8.20;99.90
25138;DHT22;13112;50.986;4.354;2023-03-14T16:02:47;8.20;99.90
25138;DHT22;13112;50.986;4.354;2023-03-14T16:05:13;8.10;99.90
25138;DHT22;13112;50.986;4.354;2023-03-14T16:07:40;8.20;99.90
25138;DHT22;13112;50.986;4.354;2023-03-14T16:10:06;8.20;99.90
25138;DHT22;13112;50.986;4.354;2023-03-14T16:12:33;8.10;99.90
25138;DHT22;13112;50.986;4.354;2023-03-14T16:14:59;8.20;99.90
25138;DHT22;13112;50.986;4.354;2023-03-14T16:17:24;8.20;99.90
25138;DHT22;13112;50.986;4.354;2023-03-14T16:19:50;8.20;99.90
25138;DHT22;13112;50.986;4.354;2023-03-14T16:22:16;8.30;99.90
25138;DHT22;13112;50.986;4.354;2023-03-14T16:24:42;8.20;99.90
25138;DHT22;13112;50.986;4.354;2023-03-14T16:27:08;8.30;99.90
25138;DHT22;13112;50.986;4.354;2023-03-14T16:29:33;8.20;99.90
25138;DHT22;13112;50.986;4.354;2023-03-14T16:31:59;8.20;99.90
25138;DHT22;13112;50.986;4.354;2023-03-14T16:34:25;8.10;99.90
25138;DHT22;13112;50.986;4.354;2023-03-14T16:36:50;8.00;99.90
25138;DHT22;13112;50.986;4.354;2023-03-14T16:39:19;8.10;99.90
25138;DHT22;13112;50.986;4.354;2023-03-14T16:41:45;8.10;99.90
25138;DHT22;13112;50.986;4.354;2023-03-14T16:44:11;8.20;99.90
25138;DHT22;13112;50.986;4.354;2023-03-14T16:46:36;8.10;99.90
25138;DHT22;13112;50.986;4.354;2023-03-14T16:49:03;8.10;99.90
25138;DHT22;13112;50.986;4.354;2023-03-14T16:51:29;8.20;99.90
25138;DHT22;13112;50.986;4.354;2023-03-14T16:53:55;8.20;99.90
25138;DHT22;13112;50.986;4.354;2023-03-14T16:56:21;8.30;99.90
25138;DHT22;13112;50.986;4.354;2023-03-14T16:58:48;8.20;99.90
25138;DHT22;13112;50.986;4.354;2023-03-14T17:01:16;8.20;99.90